Time;durP1;ratioP1;P1;durP2;ratioP2;P2;SDS_P1;SDS_P2;PMS_P1;PMS_P2;Temp;Humidity;BMP_temperature;BMP_pressure;BME280_temperature;BME280_humidity;BME280_pressure;Samples;Min_cycle;Max_cycle;Signal;HPM_P1;HPM_P2
2022/05/16 00:01:08;;;;;;;;;;;12.20;99.90;;;;;;5060637;28;20703;-63
2022/05/16 00:03:34;;;;;;;8.98;3.63;;;12.10;99.90;;;;;;5060787;28;19917;-63
2022/05/16 00:06:00;;;;;;;17.98;4.50;;;12.10;99.90;;;;;;5060709;28;20041;-63
2022/05/16 00:08:25;;;;;;;;;;;12.00;99.90;;;;;;5061702;28;20044;-64
2022/05/16 00:10:51;;;;;;;11.45;4.20;;;11.90;99.90;;;;;;5060504;28;19924;-64
2022/05/16 00:13:16;;;;;;;;;;;11.90;99.90;;;;;;5061503;28;20721;-63
2022/05/16 00:15:42;;;;;;;6.07;3.03;;;11.80;99.90;;;;;;5061050;28;20062;-63
2022/05/16 00:18:07;;;;;;;;;;;11.80;99.90;;;;;;5051950;28;20090;-63
2022/05/16 00:20:34;;;;;;;10.50;3.25;;;11.80;99.90;;;;;;5047738;28;19970;-63
2022/05/16 00:22:59;;;;;;;10.02;3.35;;;11.80;99.90;;;;;;5047488;28;20032;-63
2022/05/16 00:25:25;;;;;;;;;;;11.80;99.90;;;;;;5047956;28;20644;-64
2022/05/16 00:27:50;;;;;;;10.43;3.10;;;11.80;99.90;;;;;;5047501;28;20594;-64
2022/05/16 00:30:17;;;;;;;;;;;11.80;99.90;;;;;;5047626;28;20041;-64
2022/05/16 00:32:44;;;;;;;16.10;3.42;;;11.80;99.90;;;;;;5067139;28;20015;-64
2022/05/16 00:35:12;;;;;;;14.13;3.90;;;11.80;99.90;;;;;;5067131;28;20044;-63
2022/05/16 00:37:38;;;;;;;8.48;3.75;;;11.70;99.90;;;;;;5065379;28;20036;-64
2022/05/16 00:40:04;;;;;;;;;;;11.70;99.90;;;;;;5067316;28;20101;-64
2022/05/16 00:42:30;;;;;;;12.60;3.75;;;11.80;99.90;;;;;;5067008;28;19955;-64
2022/05/16 00:44:55;;;;;;;;;;;11.80;99.90;;;;;;5067692;28;20597;-64
2022/05/16 00:47:21;;;;;;;11.82;3.20;;;11.80;99.90;;;;;;5066922;28;20026;-64
2022/05/16 00:49:48;;;;;;;;;;;11.70;99.90;;;;;;5068256;28;20048;-63
2022/05/16 00:52:17;;;;;;;10.38;3.20;;;11.70;99.90;;;;;;5066589;28;19970;-63
2022/05/16 00:54:48;;;;;;;10.20;3.30;;;11.70;99.90;;;;;;5068303;28;20044;-64
2022/05/16 00:57:17;;;;;;;13.43;3.63;;;11.70;99.90;;;;;;5082698;28;20056;-63
2022/05/16 00:59:55;;;;;;;9.95;3.75;;;11.60;99.90;;;;;;5066921;28;20071;-63
2022/05/16 01:05:07;;;;;;;13.43;4.35;;;11.50;99.90;;;;;;5066818;28;20028;-64
2022/05/16 01:07:40;;;;;;;6.88;3.85;;;11.40;99.90;;;;;;5066649;28;20114;-64
2022/05/16 01:10:09;;;;;;;12.73;3.65;;;11.40;99.90;;;;;;5066050;28;20047;-64
2022/05/16 01:12:40;;;;;;;7.50;3.92;;;11.40;99.90;;;;;;5066145;28;20044;-64
2022/05/16 01:15:10;;;;;;;7.72;3.63;;;11.30;99.90;;;;;;5066922;28;20916;-64
2022/05/16 01:17:37;;;;;;;16.05;3.95;;;11.30;99.90;;;;;;5066354;28;20048;-64
2022/05/16 01:20:05;;;;;;;8.73;3.28;;;11.30;99.90;;;;;;5066570;28;20684;-64
2022/05/16 01:22:32;;;;;;;12.80;3.75;;;11.30;99.90;;;;;;5068535;28;20041;-63
2022/05/16 01:25:11;;;;;;;12.63;3.78;;;11.30;99.90;;;;;;5067628;28;20038;-63
2022/05/16 01:27:48;;;;;;;7.43;3.30;;;11.40;99.90;;;;;;5067133;28;20052;-65
2022/05/16 01:30:16;;;;;;;11.35;3.78;;;11.40;99.90;;;;;;5064820;28;20108;-63
2022/05/16 01:32:42;;;;;;;11.57;3.92;;;11.30;99.90;;;;;;5060697;28;20377;-64
2022/05/16 01:35:08;;;;;;;;;;;11.30;99.90;;;;;;5066897;28;20041;-64
2022/05/16 01:40:18;;;;;;;8.23;4.18;;;11.20;99.90;;;;;;5061532;28;20036;-64
2022/05/16 01:42:43;;;;;;;;;;;11.20;99.90;;;;;;5066306;28;20064;-64
2022/05/16 01:45:09;;;;;;;13.10;3.65;;;11.20;99.90;;;;;;5067286;28;19977;-64
2022/05/16 01:47:35;;;;;;;11.77;4.22;;;11.30;99.90;;;;;;5066574;28;20049;-63
2022/05/16 01:50:01;;;;;;;;;;;11.20;99.90;;;;;;5066648;28;20052;-64
2022/05/16 01:52:26;;;;;;;12.23;3.70;;;11.20;99.90;;;;;;5066419;28;19995;-63
2022/05/16 01:54:52;;;;;;;;;;;11.10;99.90;;;;;;5065606;28;20098;-62
2022/05/16 01:57:17;;;;;;;11.30;4.50;;;11.10;99.90;;;;;;5065555;28;20073;-63
2022/05/16 01:59:43;;;;;;;;;;;11.10;99.90;;;;;;5066421;28;20037;-62
2022/05/16 02:02:09;;;;;;;13.40;4.07;;;11.10;99.90;;;;;;5064410;28;19924;-62
2022/05/16 02:04:34;;;;;;;;;;;11.10;99.90;;;;;;5066326;28;20049;-65
2022/05/16 02:07:00;;;;;;;11.23;3.63;;;11.10;99.90;;;;;;5065390;28;19920;-63
2022/05/16 02:09:26;;;;;;;;;;;11.10;99.90;;;;;;5066105;28;20024;-63
2022/05/16 02:11:51;;;;;;;9.90;4.30;;;11.10;99.90;;;;;;5065235;28;19927;-63
2022/05/16 02:14:17;;;;;;;;;;;11.10;99.90;;;;;;5065758;28;20048;-62
2022/05/16 02:16:43;;;;;;;15.50;3.70;;;11.10;99.90;;;;;;5065732;28;19923;-63
2022/05/16 02:19:08;;;;;;;;;;;11.00;99.90;;;;;;5065275;28;20452;-63
2022/05/16 02:27:03;;;;;;;13.32;3.72;;;11.10;99.90;;;;;;5065178;28;20048;-63
2022/05/16 02:29:28;;;;;;;;;;;11.00;99.90;;;;;;5065395;28;20051;-63
2022/05/16 02:31:54;;;;;;;7.25;3.25;;;11.10;99.90;;;;;;5049810;28;19920;-63
2022/05/16 02:34:20;;;;;;;;;;;11.10;99.90;;;;;;5045717;28;20041;-64
2022/05/16 02:36:46;;;;;;;7.75;3.40;;;11.10;99.90;;;;;;5045376;28;20485;-63
2022/05/16 02:39:14;;;;;;;12.95;4.00;;;11.10;99.90;;;;;;5041626;28;20636;-63
2022/05/16 02:41:40;;;;;;;9.13;3.40;;;11.10;99.90;;;;;;5036465;28;20550;-63
2022/05/16 02:44:05;;;;;;;;;;;11.00;99.90;;;;;;5045181;28;20040;-62
2022/05/16 02:46:31;;;;;;;13.07;3.88;;;11.00;99.90;;;;;;5045293;28;19921;-63
2022/05/16 02:48:57;;;;;;;;;;;11.00;99.90;;;;;;5045489;28;20041;-62
2022/05/16 02:51:22;;;;;;;9.27;3.10;;;11.00;99.90;;;;;;5044867;28;19921;-62
2022/05/16 02:53:48;;;;;;;;;;;11.00;99.90;;;;;;5045665;28;20033;-62
2022/05/16 02:56:14;;;;;;;10.88;3.58;;;10.90;99.90;;;;;;5059834;28;20050;-62
2022/05/16 02:58:40;;;;;;;;;;;10.90;99.90;;;;;;5045382;28;20121;-63
2022/05/16 03:01:07;;;;;;;12.73;3.93;;;10.90;99.90;;;;;;5051020;28;19916;-63
2022/05/16 03:03:32;;;;;;;8.30;3.15;;;10.80;99.90;;;;;;5064913;28;20045;-62
2022/05/16 03:05:58;;;;;;;;;;;10.70;99.90;;;;;;5065056;28;20382;-62
2022/05/16 03:08:24;;;;;;;13.65;4.63;;;10.70;99.90;;;;;;5064223;28;19955;-62
2022/05/16 03:10:50;;;;;;;9.63;3.58;;;10.60;99.90;;;;;;5063892;28;20249;-64
2022/05/16 03:13:15;;;;;;;;;;;10.60;99.90;;;;;;5064841;28;20116;-63
2022/05/16 03:15:41;;;;;;;10.98;4.05;;;10.60;99.90;;;;;;5064736;28;19941;-64
2022/05/16 03:18:06;;;;;;;;;;;10.60;99.90;;;;;;5065347;28;20162;-63
2022/05/16 03:20:32;;;;;;;9.05;3.13;;;10.60;99.90;;;;;;5064045;28;19946;-62
2022/05/16 03:22:58;;;;;;;;;;;10.60;99.90;;;;;;5065837;28;20036;-64
2022/05/16 03:25:24;;;;;;;8.00;3.28;;;10.60;99.90;;;;;;5064291;28;20518;-62
2022/05/16 03:27:49;;;;;;;12.40;4.32;;;10.60;99.90;;;;;;5064759;28;20095;-63
2022/05/16 03:30:15;;;;;;;;;;;10.60;99.90;;;;;;5059288;28;20501;-63
2022/05/16 03:32:40;;;;;;;9.18;3.45;;;10.60;99.90;;;;;;5064198;28;20311;-63
2022/05/16 03:35:06;;;;;;;;;;;10.60;99.90;;;;;;5065203;28;20531;-65
2022/05/16 03:37:32;;;;;;;10.18;4.53;;;10.60;99.90;;;;;;5061873;28;19939;-64
2022/05/16 03:42:42;;;;;;;17.95;3.92;;;10.60;99.90;;;;;;5063944;28;20383;-63
2022/05/16 03:45:08;;;;;;;;;;;10.60;99.90;;;;;;5063834;28;20097;-65
2022/05/16 03:47:33;;;;;;;10.23;3.63;;;10.50;99.90;;;;;;5064788;28;19920;-65
2022/05/16 03:49:59;;;;;;;;;;;10.60;99.90;;;;;;5064625;28;20667;-63
2022/05/16 03:52:24;;;;;;;13.40;4.53;;;10.60;99.90;;;;;;5063454;28;20006;-63
2022/05/16 03:54:50;;;;;;;;;;;10.60;99.90;;;;;;5066546;28;20069;-63
2022/05/16 03:57:15;;;;;;;11.45;4.03;;;10.70;99.90;;;;;;5067052;28;19916;-64
2022/05/16 03:59:41;;;;;;;;;;;10.90;99.90;;;;;;5070328;28;20041;-63
2022/05/16 04:02:08;;;;;;;9.27;3.72;;;11.00;99.90;;;;;;5052164;28;19927;-63
2022/05/16 04:04:34;;;;;;;8.27;4.10;;;11.10;99.90;;;;;;5049016;28;20578;-63
2022/05/16 04:06:59;;;;;;;;;;;11.10;99.90;;;;;;5048493;28;20128;-63
2022/05/16 04:09:25;;;;;;;13.68;4.10;;;11.20;99.90;;;;;;5048229;28;20012;-63
2022/05/16 04:11:50;;;;;;;;;;;11.30;99.90;;;;;;5048238;28;20587;-63
2022/05/16 04:14:16;;;;;;;9.68;3.10;;;11.70;99.90;;;;;;5048321;28;19944;-62
2022/05/16 04:16:41;;;;;;;;;;;12.50;99.90;;;;;;5048765;28;20564;-62
2022/05/16 04:19:08;;;;;;;8.32;3.40;;;12.80;99.90;;;;;;5047749;28;20008;-62
2022/05/16 04:21:35;;;;;;;6.75;3.53;;;13.30;99.90;;;;;;5047621;28;20099;-63
2022/05/16 04:24:01;;;;;;;9.13;3.40;;;14.10;99.90;;;;;;5047286;28;20029;-61
2022/05/16 04:26:27;;;;;;;11.70;3.42;;;14.30;99.90;;;;;;5047389;28;20044;-64
2022/05/16 04:28:53;;;;;;;12.02;3.53;;;14.00;99.90;;;;;;5047897;28;20048;-63
2022/05/16 04:31:19;;;;;;;;;;;13.70;99.90;;;;;;5055720;28;20090;-63
2022/05/16 04:33:44;;;;;;;8.95;3.15;;;13.40;99.90;;;;;;5067830;28;20007;-61
2022/05/16 04:36:10;;;;;;;;;;;13.20;99.90;;;;;;5067528;28;20102;-62
2022/05/16 04:38:35;;;;;;;7.25;3.15;;;12.90;99.90;;;;;;5067096;28;19921;-63
2022/05/16 04:43:45;;;;;;;6.45;3.40;;;12.80;99.90;;;;;;5067417;28;19926;-64
2022/05/16 04:46:11;;;;;;;;;;;12.70;99.90;;;;;;5067512;28;20032;-63
2022/05/16 04:48:36;;;;;;;9.38;3.33;;;12.70;99.90;;;;;;5067195;28;20011;-63
2022/05/16 04:51:02;;;;;;;;;;;12.70;99.90;;;;;;5066928;28;20048;-62
2022/05/16 04:53:28;;;;;;;14.90;4.03;;;12.70;99.90;;;;;;5067339;28;19920;-63
2022/05/16 04:55:54;;;;;;;;;;;12.50;99.90;;;;;;5067349;28;20045;-63
2022/05/16 04:58:21;;;;;;;10.52;3.67;;;12.60;99.90;;;;;;5067159;28;20014;-62
2022/05/16 05:00:47;;;;;;;11.30;4.00;;;12.70;99.90;;;;;;5063302;28;20493;-63
2022/05/16 05:03:12;;;;;;;;;;;12.70;99.90;;;;;;5076193;28;20031;-63
2022/05/16 05:05:38;;;;;;;7.10;3.42;;;12.80;99.90;;;;;;5075538;28;19925;-64
2022/05/16 05:08:04;;;;;;;;;;;12.90;99.90;;;;;;5076447;28;20050;-59
2022/05/16 05:16:14;;;;;;;9.00;3.85;;;13.00;99.90;;;;;;5072873;28;20415;-63
2022/05/16 05:18:41;;;;;;;14.20;3.50;;;13.60;99.90;;;;;;5074303;28;20040;-64
2022/05/16 05:21:07;;;;;;;14.48;4.15;;;14.20;99.90;;;;;;5077455;28;20869;-63
2022/05/16 05:23:34;;;;;;;15.00;3.95;;;14.60;99.90;;;;;;5075986;28;20668;-63
2022/05/16 05:26:00;;;;;;;21.35;5.32;;;14.80;99.90;;;;;;5070482;28;20045;-56
2022/05/16 05:28:26;;;;;;;9.05;3.42;;;15.20;99.90;;;;;;5076641;28;20032;-62
2022/05/16 05:30:52;;;;;;;;;;;15.40;99.90;;;;;;5072668;28;20097;-62
2022/05/16 05:33:17;;;;;;;12.00;3.65;;;16.10;99.90;;;;;;5080493;28;19931;-63
2022/05/16 05:35:43;;;;;;;;;;;16.90;99.50;;;;;;5074131;28;20056;-63
2022/05/16 05:38:09;;;;;;;8.70;3.20;;;17.20;98.90;;;;;;5076000;28;19944;-65
2022/05/16 05:40:37;;;;;;;7.15;3.03;;;17.30;98.60;;;;;;5066608;28;20048;-64
2022/05/16 05:43:06;;;;;;;7.38;3.17;;;17.60;98.40;;;;;;5064458;28;20074;-63
2022/05/16 05:45:33;;;;;;;12.73;3.30;;;18.10;98.30;;;;;;5062757;28;20040;-63
2022/05/16 05:47:59;;;;;;;7.70;3.38;;;18.10;97.70;;;;;;5063755;28;20032;-63
2022/05/16 05:50:25;;;;;;;;;;;18.50;97.60;;;;;;5060277;28;20043;-63
2022/05/16 05:52:51;;;;;;;7.93;2.67;;;18.90;96.60;;;;;;5056645;28;20015;-63
2022/05/16 05:55:16;;;;;;;9.02;2.88;;;19.90;94.20;;;;;;5059599;28;20119;-62
2022/05/16 05:57:42;;;;;;;12.57;2.85;;;20.40;88.20;;;;;;5057965;28;20128;-64
2022/05/16 06:00:09;;;;;;;10.65;2.72;;;20.80;90.00;;;;;;5055312;28;20044;-63
2022/05/16 06:02:40;;;;;;;6.80;2.22;;;20.60;90.40;;;;;;5060409;28;20044;-63
2022/05/16 06:05:11;;;;;;;7.57;2.67;;;20.60;86.70;;;;;;5045614;28;20159;-64
2022/05/16 06:07:37;;;;;;;14.50;2.80;;;20.40;90.30;;;;;;5064554;28;20048;-63
2022/05/16 06:10:04;;;;;;;7.45;2.35;;;21.50;85.90;;;;;;5065186;28;20147;-62
2022/05/16 06:12:31;;;;;;;7.63;2.10;;;22.70;80.60;;;;;;5065987;28;20044;-64
2022/05/16 06:14:56;;;;;;;11.55;2.83;;;22.60;78.40;;;;;;5065443;28;20041;-62
2022/05/16 06:17:22;;;;;;;10.98;3.00;;;22.30;77.90;;;;;;5065562;28;20055;-62
2022/05/16 06:19:48;;;;;;;6.40;2.20;;;22.00;81.20;;;;;;5065462;28;20037;-63
2022/05/16 06:22:14;;;;;;;9.68;2.90;;;21.80;79.30;;;;;;5064960;28;20037;-63
2022/05/16 06:27:28;;;;;;;20.23;3.03;;;22.30;76.40;;;;;;5065175;28;20040;-63
2022/05/16 06:29:55;;;;;;;7.25;2.72;;;23.20;72.00;;;;;;5065419;28;20040;-63
2022/05/16 06:32:21;;;;;;;12.05;2.90;;;24.50;69.80;;;;;;5064048;28;20059;-64
2022/05/16 06:34:47;;;;;;;6.38;2.33;;;24.70;65.40;;;;;;5065379;28;20555;-63
2022/05/16 06:37:13;;;;;;;9.77;2.28;;;24.20;66.70;;;;;;5065224;28;20046;-63
2022/05/16 06:39:39;;;;;;;9.05;2.83;;;23.60;65.40;;;;;;5065589;28;20052;-64
2022/05/16 06:42:05;;;;;;;7.28;2.33;;;23.30;69.40;;;;;;5064719;28;20441;-63
2022/05/16 06:44:31;;;;;;;11.52;2.40;;;23.00;71.60;;;;;;5065591;28;20502;-63
2022/05/16 06:46:56;;;;;;;6.95;2.65;;;22.30;71.20;;;;;;5065405;28;20536;-62
2022/05/16 06:49:22;;;;;;;8.65;2.80;;;21.80;72.20;;;;;;5065601;28;20043;-62
2022/05/16 06:51:48;;;;;;;7.57;2.40;;;21.40;74.00;;;;;;5064636;28;20123;-62
2022/05/16 06:54:14;;;;;;;7.18;2.60;;;21.20;75.00;;;;;;5065819;28;20128;-63
2022/05/16 06:56:40;;;;;;;9.38;2.40;;;21.10;75.50;;;;;;5064741;28;20116;-63
2022/05/16 06:59:05;;;;;;;15.57;3.67;;;21.50;74.70;;;;;;5056373;28;20048;-63
2022/05/16 07:01:31;;;;;;;10.15;2.50;;;22.10;73.00;;;;;;5052496;28;20036;-63
2022/05/16 07:03:57;;;;;;;6.18;2.20;;;22.50;70.50;;;;;;5063650;28;20040;-63
2022/05/16 07:06:23;;;;;;;6.93;2.33;;;23.30;69.40;;;;;;5053162;28;20434;-63
2022/05/16 07:08:48;;;;;;;5.72;2.17;;;24.00;68.60;;;;;;5064076;28;20503;-63
2022/05/16 07:11:14;;;;;;;7.32;2.47;;;24.10;68.00;;;;;;5056511;28;20029;-63
2022/05/16 07:13:40;;;;;;;7.65;2.30;;;24.40;67.40;;;;;;5062388;28;20400;-63
2022/05/16 07:16:06;;;;;;;12.07;2.80;;;24.80;66.20;;;;;;5063501;28;20052;-63
2022/05/16 07:18:31;;;;;;;5.95;2.63;;;24.90;67.00;;;;;;5063612;28;20036;-63
2022/05/16 07:20:58;;;;;;;7.93;2.95;;;25.40;62.90;;;;;;5057147;28;20632;-63
2022/05/16 07:23:24;;;;;;;5.85;2.60;;;25.50;59.20;;;;;;5062303;28;20139;-64
2022/05/16 07:28:34;;;;;;;8.63;2.30;;;24.00;63.20;;;;;;5063443;28;20036;-64
2022/05/16 07:31:00;;;;;;;12.30;3.30;;;23.40;65.40;;;;;;5066590;28;20044;-64
2022/05/16 07:33:26;;;;;;;7.72;2.67;;;22.80;67.30;;;;;;5060504;28;20053;-65
2022/05/16 07:35:54;;;;;;;5.93;2.58;;;22.20;69.20;;;;;;5076325;28;20108;-64
2022/05/16 07:38:21;;;;;;;5.63;2.10;;;21.70;71.00;;;;;;5073118;28;20044;-64
2022/05/16 07:40:47;;;;;;;9.50;2.65;;;21.50;72.30;;;;;;5073116;28;20084;-63
2022/05/16 07:43:13;;;;;;;7.50;2.85;;;21.30;73.00;;;;;;5074024;28;20181;-63
2022/05/16 07:45:39;;;;;;;11.88;2.78;;;21.10;74.10;;;;;;5078512;28;20124;-63
2022/05/16 07:48:05;;;;;;;9.02;2.85;;;20.90;74.90;;;;;;5077126;28;20036;-63
2022/05/16 07:50:39;;;;;;;14.52;3.22;;;20.70;75.80;;;;;;5066507;28;20458;-63
2022/05/16 07:53:11;;;;;;;7.90;2.65;;;20.50;77.10;;;;;;5069883;28;20846;-62
2022/05/16 07:55:39;;;;;;;7.55;2.70;;;20.30;77.80;;;;;;5062754;28;20040;-63
2022/05/16 07:58:05;;;;;;;8.15;2.78;;;20.10;78.30;;;;;;5065430;28;20049;-63
2022/05/16 08:00:30;;;;;;;7.72;2.80;;;20.00;79.20;;;;;;5069584;28;20043;-63
2022/05/16 08:02:56;;;;;;;7.32;2.67;;;20.00;80.60;;;;;;5073308;28;20037;-62
2022/05/16 08:05:22;;;;;;;7.72;3.25;;;20.10;79.90;;;;;;5063574;28;20048;-62
2022/05/16 08:12:23;;;;;;;15.95;2.65;;;19.80;81.50;;;;;;5032754;28;20037;-63
2022/05/16 08:14:48;;;;;;;9.32;2.78;;;19.90;83.50;;;;;;5048214;28;20045;-62
2022/05/16 08:17:14;;;;;;;5.47;2.40;;;20.00;83.80;;;;;;5039804;28;20044;-62
2022/05/16 08:19:40;;;;;;;;;;;20.00;81.80;;;;;;5041980;28;20037;-62
2022/05/16 08:22:05;;;;;;;10.27;2.72;;;19.80;81.90;;;;;;5040756;28;19917;-62
2022/05/16 08:24:31;;;;;;;;;;;20.00;82.50;;;;;;5042261;28;20048;-62
2022/05/16 08:26:57;;;;;;;7.13;3.08;;;20.30;81.40;;;;;;5039934;28;19937;-63
2022/05/16 08:29:22;;;;;;;7.53;2.85;;;20.60;80.30;;;;;;5039580;28;20059;-63
2022/05/16 08:31:48;;;;;;;9.38;2.85;;;20.80;82.00;;;;;;5038052;28;20045;-63
2022/05/16 08:34:14;;;;;;;7.57;2.67;;;21.20;81.10;;;;;;5041689;28;20091;-62
2022/05/16 08:42:12;;;;;;;6.55;2.45;;;21.00;77.30;;;;;;5040845;28;20124;-63
2022/05/16 08:44:56;;;;;;;5.25;2.20;;;21.00;79.30;;;;;;5040869;28;20744;-63
2022/05/16 08:47:37;;;;;;;10.80;2.70;;;20.80;80.10;;;;;;5041214;28;21012;-61
2022/05/16 08:50:21;;;;;;;9.70;2.50;;;20.80;79.70;;;;;;5041489;28;20723;-63
2022/05/16 08:52:59;;;;;;;13.32;3.22;;;20.60;79.60;;;;;;5040332;28;20562;-62
2022/05/16 08:55:34;;;;;;;9.10;2.70;;;20.30;80.20;;;;;;5040315;28;20068;-64
2022/05/16 08:58:06;;;;;;;7.35;2.80;;;20.30;81.40;;;;;;5039925;28;20037;-63
2022/05/16 09:00:48;;;;;;;8.75;2.50;;;20.20;82.10;;;;;;5038830;28;20520;-63
2022/05/16 09:03:38;;;;;;;9.75;2.92;;;20.10;81.70;;;;;;5040377;28;20049;-62
2022/05/16 09:06:12;;;;;;;12.45;2.65;;;19.90;82.80;;;;;;5039675;28;20586;-63
2022/05/16 09:08:49;;;;;;;8.88;3.67;;;19.70;82.50;;;;;;5039184;28;20045;-64
2022/05/16 09:12:03;;;;;;;8.73;3.08;;;19.60;83.10;;;;;;5040597;28;20111;-63
2022/05/16 09:14:51;;;;;;;7.22;2.92;;;19.50;82.80;;;;;;5040234;28;20144;-63
2022/05/16 09:17:22;;;;;;;13.90;2.85;;;19.50;84.20;;;;;;5032601;28;20099;-63
2022/05/16 09:20:07;;;;;;;10.43;2.85;;;19.40;85.40;;;;;;5031974;28;20652;-62
2022/05/16 09:22:53;;;;;;;8.27;3.00;;;19.40;84.70;;;;;;5021756;28;20048;-62
2022/05/16 09:25:22;;;;;;;9.00;3.30;;;19.30;86.50;;;;;;5027071;28;20057;-63
2022/05/16 09:30:42;;;;;;;9.90;2.53;;;19.10;87.10;;;;;;5023089;28;20038;-63
2022/05/16 09:33:22;;;;;;;7.53;2.78;;;19.10;88.70;;;;;;5028434;28;20033;-64
2022/05/16 09:36:09;;;;;;;8.48;2.50;;;19.10;90.60;;;;;;5018018;28;20046;-63
2022/05/16 09:38:35;;;;;;;7.78;2.78;;;19.10;91.10;;;;;;5022806;28;20072;-63
2022/05/16 09:41:03;;;;;;;;;;;19.20;91.10;;;;;;5027429;28;20069;-62
2022/05/16 09:43:44;;;;;;;12.10;2.92;;;19.10;91.60;;;;;;5019343;28;19920;-61
2022/05/16 09:46:43;;;;;;;8.95;2.58;;;19.20;91.10;;;;;;5026773;28;20046;-64
2022/05/16 09:49:22;;;;;;;8.85;2.83;;;19.10;92.60;;;;;;5018665;28;21496;-62
2022/05/16 09:51:54;;;;;;;12.50;3.20;;;19.20;93.00;;;;;;5024842;28;20093;-64
2022/05/16 09:54:31;;;;;;;7.40;2.70;;;19.20;93.90;;;;;;5025649;28;20049;-62
2022/05/16 09:57:15;;;;;;;9.30;3.00;;;19.30;93.20;;;;;;5025711;28;20037;-62
2022/05/16 09:59:59;;;;;;;8.90;2.85;;;19.40;91.10;;;;;;5018342;28;20029;-63
2022/05/16 10:02:28;;;;;;;11.35;3.28;;;19.70;91.60;;;;;;5006560;28;20088;-62
2022/05/16 10:04:57;;;;;;;6.28;2.58;;;20.00;91.60;;;;;;5023441;28;20120;-63
2022/05/16 10:07:30;;;;;;;16.60;2.80;;;20.30;89.70;;;;;;5026027;28;20076;-62
2022/05/16 10:09:57;;;;;;;7.57;2.92;;;20.50;90.10;;;;;;5024992;28;20045;-64
2022/05/16 10:12:27;;;;;;;5.25;2.50;;;20.50;89.30;;;;;;5025766;28;20069;-63
2022/05/16 10:14:53;;;;;;;6.97;2.78;;;20.40;89.50;;;;;;5012771;28;20133;-62
2022/05/16 10:17:32;;;;;;;;;;;20.30;88.60;;;;;;5026509;28;20132;-63
2022/05/16 10:20:05;;;;;;;10.27;2.70;;;20.30;87.40;;;;;;5025776;28;19917;-62
2022/05/16 10:22:31;;;;;;;5.78;2.65;;;20.50;87.90;;;;;;5014388;28;20472;-62
2022/05/16 10:24:59;;;;;;;8.10;2.42;;;20.60;88.20;;;;;;5024348;28;20045;-62
2022/05/16 10:27:37;;;;;;;6.50;2.30;;;20.60;87.10;;;;;;5024300;28;20037;-62
2022/05/16 10:30:31;;;;;;;9.48;2.55;;;20.70;87.90;;;;;;5025978;28;20566;-64
2022/05/16 10:35:55;;;;;;;9.05;2.45;;;20.70;86.60;;;;;;5025845;28;20701;-62
2022/05/16 10:38:27;;;;;;;6.68;2.15;;;20.60;87.30;;;;;;5025586;28;20048;-63
2022/05/16 10:40:58;;;;;;;6.47;2.50;;;20.50;88.20;;;;;;5020921;28;20581;-63
2022/05/16 10:43:44;;;;;;;3.85;2.63;;;20.40;90.20;;;;;;5020665;28;20050;-62
2022/05/16 10:46:23;;;;;;;9.65;2.40;;;20.30;90.50;;;;;;5023375;28;20049;-64
2022/05/16 10:49:05;;;;;;;6.30;2.50;;;20.30;90.40;;;;;;5024187;28;20060;-62
2022/05/16 10:51:52;;;;;;;6.07;2.63;;;20.20;89.80;;;;;;5023316;28;20033;-62
2022/05/16 10:54:21;;;;;;;8.45;2.45;;;20.10;90.40;;;;;;5022456;28;20037;-63
2022/05/16 10:57:06;;;;;;;10.35;2.22;;;20.00;90.30;;;;;;5055509;28;20056;-62
2022/05/16 11:00:00;;;;;;;3.55;2.05;;;20.00;91.40;;;;;;5022281;28;20038;-62
2022/05/16 11:02:44;;;;;;;6.88;2.53;;;19.90;91.10;;;;;;5022098;28;20045;-63
2022/05/16 11:05:15;;;;;;;9.48;2.53;;;19.80;92.10;;;;;;5023757;28;20045;-65
2022/05/16 11:07:49;;;;;;;5.93;2.30;;;19.80;91.50;;;;;;5017834;28;20529;-61
2022/05/16 11:10:33;;;;;;;5.22;2.63;;;19.80;91.30;;;;;;4996373;28;20119;-65
2022/05/16 11:13:21;;;;;;;3.95;2.25;;;19.90;91.50;;;;;;5021498;28;20111;-63
2022/05/16 11:16:00;;;;;;;6.03;2.30;;;19.90;91.50;;;;;;5025285;28;20030;-63
2022/05/16 11:18:49;;;;;;;7.25;2.17;;;20.00;91.60;;;;;;5020038;28;20461;-63
2022/05/16 11:21:49;;;;;;;7.47;2.30;;;20.00;92.50;;;;;;5018502;28;20103;-63
2022/05/16 11:24:17;;;;;;;4.32;2.50;;;20.10;91.60;;;;;;5016711;28;20045;-63
2022/05/16 11:27:11;;;;;;;6.07;2.47;;;20.20;91.60;;;;;;5025789;28;20037;-64
2022/05/16 11:30:02;;;;;;;9.52;2.70;;;20.30;90.60;;;;;;5024887;28;20053;-64
2022/05/16 11:32:33;;;;;;;9.27;2.80;;;20.40;90.10;;;;;;5018271;28;20033;-63
2022/05/16 11:35:27;;;;;;;8.63;2.63;;;20.50;90.70;;;;;;5023696;28;20076;-63
2022/05/16 11:38:18;;;;;;;11.98;2.60;;;20.40;90.00;;;;;;5020783;28;20057;-64
2022/05/16 11:41:10;;;;;;;4.47;2.58;;;20.40;90.10;;;;;;5023296;28;20069;-64
2022/05/16 11:43:43;;;;;;;8.85;2.67;;;20.30;90.20;;;;;;5023825;28;20151;-64
2022/05/16 11:46:26;;;;;;;6.18;2.78;;;20.30;89.20;;;;;;5016123;28;20729;-63
2022/05/16 11:49:12;;;;;;;8.35;2.58;;;20.40;90.50;;;;;;5024678;28;20049;-64
2022/05/16 11:52:08;;;;;;;4.27;2.37;;;20.60;89.20;;;;;;5023646;28;20100;-64
2022/05/16 11:54:39;;;;;;;7.07;2.43;;;20.70;90.00;;;;;;5019311;28;20288;-64
2022/05/16 12:02:45;;;;;;;6.75;2.55;;;21.10;88.70;;;;;;5024663;28;20033;-64
2022/05/16 12:05:24;;;;;;;4.97;2.25;;;21.10;86.10;;;;;;5025280;28;20077;-64
2022/05/16 12:08:01;;;;;;;6.47;2.28;;;21.20;88.70;;;;;;5024374;28;20088;-64
2022/05/16 12:10:31;;;;;;;7.35;2.10;;;21.30;85.50;;;;;;5023890;28;20038;-64
2022/05/16 12:13:23;;;;;;;6.57;2.30;;;21.50;88.10;;;;;;5024212;28;20087;-64
2022/05/16 12:16:19;;;;;;;8.55;2.80;;;21.50;87.30;;;;;;5020948;28;20067;-64
2022/05/16 12:18:49;;;;;;;9.27;2.97;;;21.60;87.20;;;;;;5024498;28;20437;-64
2022/05/16 12:21:19;;;;;;;5.28;2.25;;;21.60;85.30;;;;;;5024184;28;20060;-65
2022/05/16 12:23:47;;;;;;;7.78;2.30;;;21.60;85.20;;;;;;5020659;28;20041;-64
2022/05/16 12:26:34;;;;;;;7.40;2.63;;;21.70;88.00;;;;;;5024168;28;20037;-64
2022/05/16 12:29:09;;;;;;;10.63;2.70;;;21.70;86.30;;;;;;5023648;28;20053;-64
2022/05/16 12:31:49;;;;;;;7.68;2.95;;;22.10;87.20;;;;;;5022366;28;20084;-64
2022/05/16 12:34:33;;;;;;;5.75;2.67;;;22.10;83.30;;;;;;5024223;28;20448;-64
2022/05/16 12:37:06;;;;;;;6.47;2.40;;;22.10;83.50;;;;;;5023024;28;20132;-65
2022/05/16 12:39:44;;;;;;;6.88;2.63;;;22.20;84.60;;;;;;5023113;28;20049;-64
2022/05/16 12:42:32;;;;;;;9.13;2.60;;;22.40;83.80;;;;;;5023684;28;20046;-64
2022/05/16 12:45:17;;;;;;;4.43;2.40;;;22.60;85.90;;;;;;5005180;28;20057;-64
2022/05/16 12:48:20;;;;;;;5.88;2.15;;;22.50;82.70;;;;;;5015609;28;20069;-64
2022/05/16 12:51:16;;;;;;;11.32;2.67;;;22.70;83.60;;;;;;5024263;28;20041;-64
2022/05/16 12:54:13;;;;;;;7.03;2.42;;;23.00;84.60;;;;;;5024177;28;20053;-64
2022/05/16 12:56:51;;;;;;;5.03;2.67;;;23.20;81.80;;;;;;5009959;28;20483;-64
2022/05/16 12:59:47;;;;;;;7.57;2.83;;;23.30;79.60;;;;;;5027643;28;20045;-65
2022/05/16 13:02:26;;;;;;;5.78;2.20;;;23.50;79.00;;;;;;5020115;28;20045;-65
2022/05/16 13:04:58;;;;;;;6.07;2.17;;;23.60;78.50;;;;;;5054301;28;20041;-67
2022/05/16 13:07:49;;;;;;;4.10;2.10;;;23.80;81.00;;;;;;5024184;28;20041;-66
2022/05/16 13:10:21;;;;;;;3.85;2.05;;;23.90;75.90;;;;;;5018490;28;20514;-65
2022/05/16 13:12:59;;;;;;;4.38;2.13;;;23.90;77.30;;;;;;5017894;28;20041;-65
2022/05/16 13:15:44;;;;;;;11.63;3.58;;;24.10;78.50;;;;;;5005167;28;20041;-64
2022/05/16 13:18:15;;;;;;;9.55;3.00;;;23.90;75.50;;;;;;5012945;28;20041;-65
2022/05/16 13:20:44;;;;;;;10.15;2.40;;;23.60;75.60;;;;;;5025766;28;20051;-65
2022/05/16 13:23:13;;;;;;;9.00;2.80;;;23.40;76.60;;;;;;5026750;28;20037;-65
2022/05/16 13:29:21;;;;;;;4.63;1.90;;;23.40;77.40;;;;;;5026214;28;20069;-65
2022/05/16 13:31:08;;;;;;;9.65;2.42;;;23.80;76.80;;;;;;5025600;28;20045;-64
2022/05/16 13:33:37;;;;;;;5.05;2.33;;;23.70;75.70;;;;;;5027296;28;20048;-64
2022/05/16 13:36:22;;;;;;;11.52;2.60;;;23.80;77.70;;;;;;5027800;28;20049;-64
2022/05/16 13:39:11;;;;;;;5.50;2.15;;;23.60;73.90;;;;;;5026185;28;20083;-64
2022/05/16 13:41:37;;;;;;;7.35;2.40;;;23.50;75.70;;;;;;5021961;28;20041;-64
2022/05/16 13:44:04;;;;;;;4.57;1.75;;;23.60;75.50;;;;;;5027535;28;20091;-64
2022/05/16 13:46:33;;;;;;;7.25;2.10;;;23.60;78.30;;;;;;5027065;28;20045;-64
2022/05/16 13:49:10;;;;;;;7.93;2.60;;;23.60;76.00;;;;;;5027973;28;20564;-64
2022/05/16 13:51:50;;;;;;;4.82;1.67;;;23.40;75.00;;;;;;5027670;28;20101;-64
2022/05/16 13:54:26;;;;;;;5.85;2.25;;;23.40;76.50;;;;;;5027783;28;20061;-64
2022/05/16 13:56:58;;;;;;;3.03;1.75;;;23.30;76.80;;;;;;5027400;28;20049;-64
2022/05/16 13:59:30;;;;;;;5.25;1.98;;;23.30;79.30;;;;;;5027088;28;20124;-64
2022/05/16 14:02:04;;;;;;;6.20;2.17;;;23.10;79.10;;;;;;5025646;28;20045;-65
2022/05/16 14:04:35;;;;;;;7.03;1.90;;;22.80;77.50;;;;;;5027435;28;20042;-67
2022/05/16 14:07:16;;;;;;;8.60;2.45;;;22.70;80.00;;;;;;5058948;28;20042;-64
2022/05/16 14:09:47;;;;;;;4.00;1.90;;;22.70;80.10;;;;;;5022657;28;20069;-64